This is the latest recevied weather packets stored in our database for station/object ke5jzm-1. If no packets are shown the sender has not sent any weather packets the latest 10 day(s).
| Time | Temp. | Humidity | Pressure | Rain* | Wind** | Luminosity | Snow |
|---|---|---|---|---|---|---|---|
| 1777592729 | 24.44° C | 59% | 1011.1 hPa | 0 mm | - | 50 W/m² | - |
| 1777592691 | 24.44° C | 59% | 1011.1 hPa | 0 mm | - | 51 W/m² | - |
| 1777592609 | 23.89° C | 58% | 1011.1 hPa | 0 mm | - | 51 W/m² | - |
| 1777592549 | 23.89° C | 58% | 1011.2 hPa | 0 mm | - | 53 W/m² | - |
| 1777592489 | 23.89° C | 58% | 1011.1 hPa | 0 mm | - | 54 W/m² | - |
| 1777592430 | 23.89° C | 58% | 1011.1 hPa | 0 mm | - | 55 W/m² | - |
| 1777592392 | 23.89° C | 58% | 1011.1 hPa | 0 mm | - | 57 W/m² | - |
| 1777592309 | 24.44° C | 58% | 1011.2 hPa | 0 mm | - | 53 W/m² | - |
| 1777592249 | 24.44° C | 57% | 1011.4 hPa | 0 mm | - | 47 W/m² | - |
| 1777592189 | 24.44° C | 57% | 1011.5 hPa | 0 mm | - | 39 W/m² | - |
| 1777592129 | 24.44° C | 57% | 1011.5 hPa | 0 mm | - | 35 W/m² | - |
| 1777592070 | 24.44° C | 57% | 1011.4 hPa | 0 mm | - | 36 W/m² | - |
| 1777592009 | 24.44° C | 58% | 1011.3 hPa | 0 mm | - | 39 W/m² | - |
| 1777591950 | 24.44° C | 58% | 1011.2 hPa | 0 mm | - | 42 W/m² | - |
| 1777591889 | 24.44° C | 58% | 1011.1 hPa | 0 mm | - | 39 W/m² | - |
| 1777591830 | 24.44° C | 58% | 1011.2 hPa | 0 mm | - | 33 W/m² | - |
| 1777591770 | 24.44° C | 58% | 1011.4 hPa | 0 mm | - | 27 W/m² | - |
| 1777591710 | 24.44° C | 59% | 1011.6 hPa | 0 mm | - | 21 W/m² | - |
| 1777591649 | 24.44° C | 59% | 1011.6 hPa | 0 mm | - | 15 W/m² | - |
| 1777591590 | 24.44° C | 59% | 1011.7 hPa | 0 mm | - | 9 W/m² | - |
| 1777591529 | 24.44° C | 59% | 1011.6 hPa | 0 mm | - | 7 W/m² | - |
| 1777591467 | 24.44° C | 59% | 1011.5 hPa | 0 mm | - | 8 W/m² | - |
| 1777591408 | 24.44° C | 58% | 1011.3 hPa | 0 mm | - | 10 W/m² | - |
| 1777591347 | 24.44° C | 58% | 1011.2 hPa | 0 mm | - | 13 W/m² | - |
| 1777591288 | 24.44° C | 58% | 1011.1 hPa | 0 mm | - | 15 W/m² | - |
* Rain latest hour (hover to see other rain measurements)
** Current wind speed in m/s (hover to see current wind gust speed)